Aviation Digital Data Service (ADDS)

Output produced by METARs form (0145 UTC 16 January 2019)
found at http://www.aviationweather.gov/metar/data/
 
TAF KBAB 151900Z 1519/1701 10009KT 9999 -RA OVC045 QNH2982INS 
     BECMG 1520/1521 14012KT 9000 -RA OVC020 QNH2980INS 
     BECMG 1603/1604 16009KT 4800 -RA BR BKN020 OVC050 QNH2984INS 
     BECMG 1614/1615 14010G15KT 9000 -RA BKN010 OVC040 QNH2996INS 
     TEMPO 1622/1701 14015G25KT TX12/1521Z TN07/1611Z
       
TAF KBAD 151800Z 1518/1624 17004KT 9999 FEW022 SCT180 QNH3033INS 
     BECMG 1522/1523 14004KT 9999 BKN055 BKN200 QNH3025INS 
     BECMG 1609/1610 16008KT 9999 OVC025 QNH3024INS TX09/1521Z TN04/1612Z
       
KBAF 152322Z 1600/1624 29004KT P6SM BKN035 
     FM160200 VRB03KT P6SM SKC 
     FM161600 23010KT P6SM FEW040 
     FM161800 25011G22KT P6SM FEW040 
     FM162300 28009KT P6SM SKC
       
KBAM 152335Z 1600/1624 07007KT P6SM SCT030 SCT200 
     FM160500 VRB06KT 4SM -SN BR BKN015 OVC050 
     FM161000 17006KT P6SM OVC050
       
KBBD 152329Z 1600/1624 20005KT P6SM SCT020 
     FM160800 21010KT P6SM OVC015 
     FM161400 22008KT P6SM BKN030 OVC050 
     FM161900 21008KT P6SM SCT100
       
KBBG 152320Z 1600/1624 VRB04KT P6SM FEW220 
     FM160500 22005KT P6SM FEW100 BKN150 
     FM162100 16006KT P6SM BKN050
       
KBCB 152326Z 1600/1624 29006KT P6SM OVC015 
     FM160600 29004KT P6SM OVC008 
     FM161300 28007KT P6SM BKN015 
     FM161600 28008G15KT P6SM BKN025 
     FM162100 28007KT P6SM SCT035
       
KBCE 160041Z 1601/1624 13008KT 1SM -SN BR BKN004 
     TEMPO 1601/1603 1/2SM SN FZFG BKN004 
     FM161000 27006KT P6SM VCSH SCT008 BKN020 
     FM161500 27010KT P6SM SCT020 BKN040
       
KBDL 152322Z 1600/1706 30004KT P6SM SCT035 
     FM160300 VRB03KT P6SM SKC 
     FM161700 25010G22KT P6SM FEW040 
     FM170200 30009KT P6SM FEW250
       
KBDR 152344Z 1600/1624 VRB03KT P6SM FEW250 
     FM160800 25004KT P6SM FEW250 
     FM161000 25006KT P6SM FEW045 
     FM161400 25010KT P6SM BKN040 
     FM161600 25011G19KT P6SM BKN040 
     FM162200 26008KT P6SM BKN100
       
KBED 152322Z 1600/1624 VRB03KT P6SM SKC 
     FM161300 22004KT P6SM SKC 
     FM161700 25010G20KT P6SM FEW035 
     FM162200 25006KT P6SM SKC
       
KBFD 152340Z 1600/1624 23005KT P6SM OVC015 
     FM160500 24010G20KT P6SM OVC012 
     FM160900 25012G22KT 2SM -SHSN OVC008 
     FM161400 28015G25KT P6SM -SHSN OVC025
       
KBFF 152336Z 1600/1624 VRB06KT P6SM SCT200 
     FM160400 VRB05KT P6SM BKN100 
     FM161200 11008KT P6SM OVC070 
     FM162100 28010KT P6SM OVC050
       
KBFI 152340Z 1600/1624 31003KT P6SM BKN120 OVC200 
     FM161200 12004KT P6SM OVC090
       
KBFL 160016Z 1600/1624 15016G25KT P6SM BKN050 
     FM160100 13012KT 6SM -RA OVC050 
     FM161500 10006KT 4SM BR OVC250 
     FM161800 12011KT P6SM OVC250 
     FM162100 15014KT 4SM HZ OVC050
       
KBFM 152320Z 1600/1624 VRB03KT P6SM SCT250
       
KBGM 152320Z 1600/1624 VRB04KT P6SM OVC025 
     FM160200 21006KT P6SM BKN035 
     FM161400 26012KT P6SM BKN035
       
KBGR 152334Z 1600/1624 VRB03KT P6SM BKN040 
     FM161500 24010G18KT P6SM BKN035 
     FM162200 27010G18KT 5SM -SHSN OVC025
       
KBHB 152334Z 1600/1624 VRB03KT P6SM BKN040 
     FM161500 24012G22KT P6SM BKN035 
     FM162200 27012G22KT 5SM -SHSN OVC025
       
KBHM 152337Z 1600/1624 VRB02KT P6SM OVC021 
     FM160200 00000KT P6SM SCT250 
     FM161000 00000KT 5SM BR SKC 
     FM161400 27003KT P6SM SKC
       
TAF KBIF 152207Z 1522/1704 23009KT 9999 SCT100 QNH3012INS 
     BECMG 1600/1601 VRB06KT 9999 FEW100 SCT200 QNH3018INS 
     BECMG 1616/1617 27010G18KT 9999 FEW080 SCT180 QNH3022INS 
     BECMG 1623/1624 VRB06KT 9999 SCT180 QNH3017INS TX17/1522Z TN00/1610Z
       
KBIH 152320Z 1600/1624 15009KT P6SM SCT015 OVC040 
     FM160100 15010G18KT 5SM -RA BR OVC007 
     FM160900 16008KT P6SM SCT007 BKN015 
     FM161400 VRB05KT P6SM SCT015 BKN050 
     FM162000 16011G19KT P6SM OVC050
       
KBIL 152324Z 1600/1624 04009KT P6SM BKN190 
     FM160700 23012KT P6SM FEW002 
     FM161200 23012KT P6SM SCT150
       
KBIS 152323Z 1600/1624 02010KT P6SM OVC018 
     FM160500 06009KT P6SM BKN030 
     FM161200 09005KT P6SM BKN050 
     FM161500 14011KT P6SM BKN020
       
TAF AMD KBIX 152037Z 1520/1700 35009KT 9999 FEW250 QNH3027INS 
     BECMG 1618/1619 VRB04KT 9999 SKC QNH3024INS 
     BECMG 1623/1624 18006KT 9999 FEW100 QNH3025INS TX11/1521Z TN04/1610Z
       
KBJC 152339Z 1600/1624 VRB04KT P6SM FEW120 
     FM160400 32006KT P6SM SCT120 BKN200 
     FM161600 28010KT P6SM BKN100 OVC180 
     FM162300 27006KT P6SM SCT070 BKN190
       
KBJI 152323Z 1600/1624 32015G21KT P6SM -SN SCT015 
     FM160100 32011KT P6SM SKC 
     FM161000 34005KT P6SM SKC 
     FM161500 00000KT P6SM FEW200
       
KBKE 152343Z 1600/1624 10011KT P6SM SCT015 OVC025 
     FM161200 11011KT 3SM -SHSN BR OVC015 
     FM161900 12010KT P6SM SCT015 BKN035
       
TAF KBKF 160101Z 1601/1707 18009KT 9999 FEW200 QNH3004INS 
     BECMG 1607/1608 21009KT 9999 FEW100 SCT200 QNH2999INS 
     BECMG 1609/1610 21009KT 9999 SCT060 BKN080 620809 QNH2995INS 
     BECMG 1612/1613 26009KT 9999 BKN060 620609 QNH2991INS 
     BECMG 1615/1616 VRB06KT 9999 FEW060 SCT100 QNH2990INS 
     BECMG 1705/1706 VRB06KT 9999 SKC QNH2998INS TX08/1621Z TNM05/1612Z
       
KBKW 152339Z 1600/1624 26004KT P6SM BKN009 
     FM160200 25003KT P6SM BKN015 
     FM161000 26005KT P6SM BKN007 
     FM161200 27005KT 5SM -FZDZ BKN007 
     FM161700 27006KT 4SM -DZ OVC010
       
KBLF 160145Z 1602/1624 28005KT P6SM OVC012 
     FM160500 27004KT P6SM OVC008 
     FM161200 27007KT P6SM -FZDZ OVC006 
     FM161500 27008G15KT P6SM OVC020 
     FM162200 27005KT P6SM BKN015
       
KBLH 152338Z 1600/1624 18007KT P6SM SCT060 BKN100 
     FM160500 21005KT P6SM FEW080 SCT250
       
KBLI 152340Z 1600/1624 01005KT P6SM BKN120 OVC200 
     FM161400 04006KT P6SM OVC120
       
TAF KBLV 160000Z 1600/1706 VRB06KT 9999 OVC010 620103 QNH3019INS 
     TEMPO 1606/1612 OVC007 TX02/1608Z TN00/1600Z
       
KBMG 152336Z 1600/1624 24007KT 5SM BR OVC007 
     FM160200 23007KT P6SM OVC006 
     FM160600 25006KT 4SM -FZDZ OVC003 
     FM161500 VRB04KT P6SM OVC003
       
KBMI 160108Z 1601/1624 23011KT 2SM -FZDZ BR OVC003 
     FM161000 31006KT P6SM OVC003 
     FM161800 04006KT P6SM OVC007 
     FM162000 06006KT P6SM BKN011
       
KBNA 152323Z 1600/1624 20004KT P6SM OVC018 
     FM160400 21003KT P6SM BKN035 
     FM160800 22004KT P6SM OVC020 
     FM162200 23004KT P6SM BKN250
       
KBNO 152343Z 1600/1624 08011KT P6SM SCT025 
     FM161200 07007KT 3/4SM -SN BR SCT009 OVC015 
     FM161600 07007KT P6SM OVC009 
     FM162000 06007KT P6SM -RA OVC015
       
KBOI 152343Z 1600/1624 VRB06KT P6SM SCT015 BKN035 
     FM160900 VRB06KT 2SM -SN BR OVC015 
     FM161100 VRB06KT 3/4SM -SN BR OVC009 
     FM161500 VRB06KT 6SM -RASN BR SCT010 OVC025 
     FM161700 14010KT P6SM SCT020 BKN035 
     FM162300 14010KT P6SM -RA SCT020 OVC035
       
KBOS 152322Z 1600/1706 31004KT P6SM FEW200 
     FM160800 23005KT P6SM SKC 
     FM161600 24010G20KT P6SM SKC 
     FM170100 27011G22KT P6SM SKC 
     FM170500 30012G20KT P6SM SKC
       
KBPI 152320Z 1600/1624 VRB04KT P6SM SCT045 BKN060 
     FM160800 VRB04KT P6SM SCT020 OVC035 
     FM161300 VRB04KT P6SM VCSH SCT010 OVC020 
     FM161800 VRB04KT 2SM -SN SCT006 OVC010
       
KBPK 152339Z 1600/1624 17003KT P6SM SKC 
     FM161500 17005KT P6SM SCT250
       
KBPT 152325Z 1600/1624 VRB03KT P6SM BKN070 
     FM160600 VRB03KT P6SM BKN050 
     FM161500 14005KT P6SM BKN035
       
KBRD 160105Z 1601/1624 32013G21KT P6SM VCSH SCT025 
     FM160300 33013KT P6SM VCSH SCT015 BKN025 
     FM160600 34008KT P6SM SCT045 
     FM161300 36005KT P6SM FEW250
       
KBRL 160119Z 1601/1624 25010KT 5SM -DZ BR OVC005 
     FM160500 28006KT 6SM BR OVC007 
     FM160900 32007KT P6SM OVC008 
     FM161400 01006KT P6SM OVC015
       
KBRO 152337Z 1600/1624 35007KT 2SM -RA BR OVC004 
     FM160800 28009KT 3SM -RA BR OVC004 
     FM161500 30005KT 6SM BR OVC015
       
KBTL 152330Z 1600/1624 22012KT P6SM OVC008 
     FM160500 23012G20KT 2SM -FZDZ BR OVC004 
     FM160900 26012G20KT 3SM -SHSN OVC008 
     FM161100 29010KT P6SM BKN025 
     FM161900 34008KT P6SM FEW035
       
KBTM 152339Z 1600/1624 16004KT P6SM VCSH OVC060 
     FM160100 16004KT 5SM -SN BR OVC030 
     FM160300 15003KT P6SM BKN050
       
KBTR 152323Z 1600/1624 VRB03KT P6SM SCT140 BKN250
       
KBTV 152337Z 1600/1624 18006KT P6SM BKN025 
     FM160400 18007KT P6SM BKN035 
     FM161700 21014G24KT P6SM VCSH BKN035 
     FM162000 27014G25KT P6SM VCSH SCT020 BKN040 
     FM162100 30014G25KT P6SM BKN040
       
KBUF 152323Z 1600/1624 23013G20KT P6SM OVC015 
     FM160400 23016G24KT P6SM VCSH OVC015 
     FM160700 24018G30KT 6SM -SHSN OVC012 
     FM160900 24019G33KT 2SM -SN OVC012 
     FM161200 24019G35KT P6SM VCSH OVC015 
     FM161600 26020G30KT P6SM VCSH BKN030 
     FM162000 29016KT P6SM BKN035
       
KBUR 152355Z 1600/1624 15008KT 2SM RA BR BKN012 OVC025 
     FM160500 16008KT 4SM -SHRA BR SCT012 BKN025 
     FM160800 VRB03KT P6SM VCSH SCT025 BKN040 
     FM161700 14006KT 6SM -RA BR BKN025 OVC040
       
KBVI 152359Z 1600/1624 24008KT P6SM VCSH OVC015 
     FM160400 24009KT P6SM VCSH OVC008 
     FM160700 24010KT 6SM -FZDZSN BR OVC005 
     FM161300 25010KT 6SM -SHSN OVC008 
     PROB30 1613/1616 -FZDZ 
     FM161600 26010G18KT P6SM -SHSN OVC015 
     FM162200 29007KT P6SM OVC025
       
KBVO 152328Z 1600/1624 19003KT P6SM SCT035 
     FM160900 19003KT 4SM BR BKN025 
     FM161600 15008KT P6SM BKN025
       
KBWG 152320Z 1600/1624 21004KT P6SM OVC015 
     FM160700 21004KT P6SM OVC008 
     TEMPO 1610/1614 4SM BR 
     FM161800 24006KT P6SM OVC015
       
KBWI 152340Z 1600/1706 VRB03KT P6SM FEW100 
     FM161800 27008KT P6SM BKN030 
     FM162200 27007KT P6SM SCT035
       
KBYI 152334Z 1600/1624 07011KT P6SM OVC100 
     FM161000 07010KT 3SM -SN BR SCT010 OVC020 
     FM161600 05008KT P6SM VCSH OVC025 
     FM161900 24010KT P6SM OVC030
       
KBZN 152337Z 1600/1706 VRB06KT P6SM SCT080 BKN110 
     FM160200 VRB03KT P6SM FEW140 
     FM170300 VRB02KT P6SM SCT025 BKN050